Astrahanka, Russia
Current Conditions -  °F | °C
As of 6:00 PM on Thursday 29 Jan 2015 (Local Time) from UHWW Reporting Station
Overcast Overcast  
Wind Chill: 16°   Ceiling: 10000
Heat Index: 16°   Visibility: 6mi
Dew Point:   Wind: 2mph
Humidity: 49%   Direction: NA
Pressure: 30.27"   Gusts: NA
Location:  44.72°N, 132.07°E
Report Text: UHWW 290800Z VRB01MPS 9999 OVC100 M09/M18 Q1025 NOSIG RMKQFE768/1024 25CLRD60
Loading
Personal Weather Stations






























Interactive Weather Map New forecast layout! Learn more

10-Day Weather Forecast

Advertisements
Track Severe Weather on mobile